createdAt,value
2023-02-24T00:02:08.625Z,101217.38
2023-02-24T00:04:41.483Z,101209.13
2023-02-24T00:07:11.270Z,101208.56
2023-02-24T00:09:39.551Z,101204.97
2023-02-24T00:12:13.369Z,101202.50
2023-02-24T00:14:43.062Z,101193.13
2023-02-24T00:17:12.545Z,101197.28
2023-02-24T00:19:39.536Z,101190.06
2023-02-24T00:22:10.635Z,101189.00
2023-02-24T00:24:37.674Z,101196.44
2023-02-24T00:27:12.135Z,101189.00
2023-02-24T00:29:40.949Z,101186.50
2023-02-24T00:32:13.343Z,101188.16
2023-02-24T00:34:41.296Z,101175.47
2023-02-24T00:37:08.330Z,101179.06
2023-02-24T00:39:36.468Z,101161.66
2023-02-24T00:42:06.631Z,101161.38
2023-02-24T00:44:44.089Z,101160.03
2023-02-24T00:47:12.518Z,101146.50
2023-02-24T00:49:42.733Z,101139.84
2023-02-24T00:52:16.056Z,101147.31
2023-02-24T00:54:44.511Z,101139.28
2023-02-24T00:57:11.843Z,101131.31
2023-02-24T00:59:39.346Z,101123.84
2023-02-24T01:02:07.631Z,101119.72
2023-02-24T01:04:35.266Z,101115.06
2023-02-24T01:07:02.340Z,101112.25
2023-02-24T01:09:32.483Z,101104.78
2023-02-24T01:12:22.511Z,101104.25
2023-02-24T01:14:52.122Z,101100.69
2023-02-24T01:17:20.469Z,101101.50
2023-02-24T01:19:50.000Z,101098.75
2023-02-24T01:22:21.098Z,101088.81
2023-02-24T01:24:48.826Z,101087.72
2023-02-24T01:27:19.228Z,101072.53
2023-02-24T01:29:47.619Z,101088.56
2023-02-24T01:32:17.806Z,101077.53
2023-02-24T01:34:46.226Z,101067.06
2023-02-24T01:37:16.634Z,101067.03
2023-02-24T01:39:47.065Z,101065.41
2023-02-24T01:42:21.807Z,101068.97
2023-02-24T01:44:49.174Z,101058.22
2023-02-24T01:47:22.102Z,101062.91
2023-02-24T01:49:54.926Z,101052.97
2023-02-24T01:52:24.304Z,101049.94
2023-02-24T01:54:58.514Z,101049.38
2023-02-24T01:57:29.603Z,100988.47
2023-02-24T02:00:02.351Z,101033.69
2023-02-24T02:02:29.842Z,101014.38
2023-02-24T02:05:15.105Z,101027.03
2023-02-24T02:07:43.788Z,101009.69
2023-02-24T02:10:12.310Z,101004.72
2023-02-24T02:12:46.651Z,101011.91
2023-02-24T02:15:20.714Z,101013.00
2023-02-24T02:17:47.810Z,101008.56
2023-02-24T02:20:58.487Z,101002.47
2023-02-24T02:23:41.348Z,101002.78
2023-02-24T02:26:27.115Z,101001.94
2023-02-24T02:29:00.140Z,100998.41
2023-02-24T02:31:51.180Z,100991.22
2023-02-24T02:34:42.915Z,100988.19
2023-02-24T02:37:18.753Z,100979.66
2023-02-24T02:40:17.338Z,100970.00
2023-02-24T02:43:02.574Z,100973.56
2023-02-24T02:45:40.600Z,100972.47
2023-02-24T02:48:17.485Z,100958.13
2023-02-24T02:50:53.013Z,100961.16
2023-02-24T02:53:35.294Z,100954.25
2023-02-24T02:56:13.428Z,100949.88
2023-02-24T02:58:46.430Z,100949.84
2023-02-24T03:01:18.944Z,100941.06
2023-02-24T03:03:51.174Z,100945.72
2023-02-24T03:06:22.545Z,100941.31
2023-02-24T03:08:58.736Z,100931.41
2023-02-24T03:11:26.818Z,100932.78
2023-02-24T03:13:57.831Z,100917.34
2023-02-24T03:16:26.877Z,100923.97
2023-02-24T03:19:08.201Z,100909.91
2023-02-24T03:21:39.175Z,100911.00
2023-02-24T03:24:07.410Z,100903.56
2023-02-24T03:26:44.306Z,100899.16
2023-02-24T03:29:25.542Z,100897.53
2023-02-24T03:32:15.739Z,100887.59
2023-02-24T03:34:57.070Z,100878.22
2023-02-24T03:37:28.320Z,100875.72
2023-02-24T03:39:58.702Z,100868.84
2023-02-24T03:42:34.057Z,100865.53
2023-02-24T03:45:02.127Z,100828.13
2023-02-24T03:47:30.533Z,100848.75
2023-02-24T03:49:57.523Z,100846.81
2023-02-24T03:52:42.973Z,100840.25
2023-02-24T03:55:33.976Z,100831.97
2023-02-24T03:58:31.537Z,100832.75
2023-02-24T04:01:07.429Z,100830.00
2023-02-24T04:03:49.459Z,100819.25
2023-02-24T04:06:27.224Z,100815.44
2023-02-24T04:09:09.067Z,100804.44
2023-02-24T04:11:42.083Z,100806.06
2023-02-24T04:14:25.642Z,100803.59
2023-02-24T04:17:09.216Z,100795.34
2023-02-24T04:19:40.841Z,100785.72
2023-02-24T04:22:12.417Z,100777.13
2023-02-24T04:24:43.398Z,100775.44
2023-02-24T04:27:12.497Z,100770.47
2023-02-24T04:29:47.522Z,100764.38
2023-02-24T04:32:19.135Z,100763.28
2023-02-24T04:34:46.058Z,100748.13
2023-02-24T04:37:13.950Z,100739.91
2023-02-24T04:39:41.025Z,100740.94
2023-02-24T04:42:10.381Z,100729.44
2023-02-24T04:44:37.320Z,100681.34
2023-02-24T04:47:04.212Z,100715.94
2023-02-24T04:49:31.240Z,100708.78
2023-02-24T04:51:58.023Z,100645.88
2023-02-24T04:54:24.900Z,100694.81
2023-02-24T04:56:52.337Z,100690.41
2023-02-24T04:59:21.041Z,100675.00
2023-02-24T05:01:51.848Z,100680.56
2023-02-24T05:04:19.575Z,100668.97
2023-02-24T05:06:47.381Z,100662.63
2023-02-24T05:09:21.004Z,100666.38
2023-02-24T05:11:51.734Z,100651.53
2023-02-24T05:14:25.003Z,100648.47
2023-02-24T05:16:52.035Z,100638.84
2023-02-24T05:19:39.277Z,100630.59
2023-02-24T05:22:11.830Z,100629.19
2023-02-24T05:24:38.823Z,100609.38
2023-02-24T05:27:05.566Z,100614.06
2023-02-24T05:29:34.875Z,100618.19
2023-02-24T05:32:04.346Z,100612.94
2023-02-24T05:34:33.155Z,100608.25
2023-02-24T05:37:04.615Z,100596.88
2023-02-24T05:39:31.510Z,100603.47
2023-02-24T05:41:58.818Z,100600.16
2023-02-24T05:44:27.338Z,100601.03
2023-02-24T05:46:59.645Z,100590.63
2023-02-24T05:49:36.663Z,100591.56
2023-02-24T05:52:10.333Z,100578.97
2023-02-24T05:54:40.261Z,100573.78
2023-02-24T05:57:12.575Z,100573.28
2023-02-24T05:59:41.501Z,100566.63
2023-02-24T06:02:11.687Z,100563.34
2023-02-24T06:04:41.189Z,100557.59
2023-02-24T06:07:14.625Z,100557.59
2023-02-24T06:09:44.185Z,100550.41
2023-02-24T06:12:12.569Z,100543.84
2023-02-24T06:14:39.585Z,100544.41
2023-02-24T06:17:06.596Z,100526.16
2023-02-24T06:19:33.764Z,100520.72
2023-02-24T06:22:07.018Z,100521.28
2023-02-24T06:24:33.968Z,100517.72
2023-02-24T06:27:09.962Z,100513.56
2023-02-24T06:29:38.115Z,100509.41
2023-02-24T06:32:09.026Z,100507.25
2023-02-24T06:34:37.629Z,100499.81
2023-02-24T06:37:06.154Z,100494.31
2023-02-24T06:39:36.788Z,100489.91
2023-02-24T06:42:05.362Z,100462.75
2023-02-24T06:44:34.012Z,100485.53
2023-02-24T06:47:01.691Z,100483.31
2023-02-24T06:49:29.790Z,100476.22
2023-02-24T06:51:57.857Z,100450.09
2023-02-24T06:54:28.605Z,100470.72
2023-02-24T06:56:55.919Z,100462.69
2023-02-24T06:59:23.085Z,100447.22
2023-02-24T07:01:50.137Z,100447.59
2023-02-24T07:04:18.131Z,100444.84
2023-02-24T07:06:52.591Z,100432.00
2023-02-24T07:09:22.654Z,100423.19
2023-02-24T07:11:53.537Z,100426.94
2023-02-24T07:14:23.073Z,100415.97
2023-02-24T07:16:54.855Z,100420.88
2023-02-24T07:19:27.079Z,100415.66
2023-02-24T07:22:03.417Z,100414.25
2023-02-24T07:24:40.997Z,100411.81
2023-02-24T07:27:23.343Z,100407.31
2023-02-24T07:29:53.398Z,100410.91
2023-02-24T07:32:22.913Z,100404.59
2023-02-24T07:34:50.142Z,100396.72
2023-02-24T07:37:17.097Z,100393.09
2023-02-24T07:39:44.078Z,100390.06
2023-02-24T07:42:14.041Z,100385.34
2023-02-24T07:44:40.992Z,100383.72
2023-02-24T07:47:08.562Z,100365.72
2023-02-24T07:49:36.452Z,100370.69
2023-02-24T07:52:04.224Z,100360.16
2023-02-24T07:54:31.490Z,100364.03
2023-02-24T07:56:59.769Z,100363.13
2023-02-24T07:59:33.222Z,100352.63
2023-02-24T08:02:05.058Z,100350.69
2023-02-24T08:04:33.330Z,100339.19
2023-02-24T08:07:03.429Z,100328.47
2023-02-24T08:10:07.366Z,100332.06
2023-02-24T08:12:35.518Z,100330.31
2023-02-24T08:15:08.989Z,100319.91
2023-02-24T08:17:36.147Z,100312.38
2023-02-24T08:20:15.151Z,100310.16
2023-02-24T08:22:44.612Z,100296.66
2023-02-24T08:25:18.749Z,100300.31
2023-02-24T08:28:08.837Z,100300.31
2023-02-24T08:30:39.113Z,100287.78
2023-02-24T08:33:16.124Z,100268.75
2023-02-24T08:35:45.405Z,100272.19
2023-02-24T08:38:17.321Z,100275.50
2023-02-24T08:40:50.830Z,100272.03
2023-02-24T08:43:33.249Z,100269.13
2023-02-24T08:46:25.791Z,100251.66
2023-02-24T08:49:01.032Z,100243.91
2023-02-24T08:51:29.690Z,100245.72
2023-02-24T08:54:18.653Z,100239.69
2023-02-24T08:56:56.320Z,100232.34
2023-02-24T08:59:38.379Z,100230.94
2023-02-24T09:02:19.680Z,100218.72
2023-02-24T09:04:49.399Z,100220.28
2023-02-24T09:07:23.301Z,100194.38
2023-02-24T09:09:50.939Z,100211.66
2023-02-24T09:12:25.129Z,100207.28
2023-02-24T09:14:56.712Z,100179.91
2023-02-24T09:17:41.055Z,100203.00
2023-02-24T09:20:27.514Z,100212.88
2023-02-24T09:23:07.537Z,100206.47
2023-02-24T09:25:49.861Z,100197.03
2023-02-24T09:28:25.019Z,100194.53
2023-02-24T09:30:55.050Z,100190.72
2023-02-24T09:33:28.093Z,100177.38
2023-02-24T09:36:03.665Z,100191.66
2023-02-24T09:39:03.451Z,100162.44
2023-02-24T09:42:04.153Z,100176.47
2023-02-24T09:44:39.433Z,100173.38
2023-02-24T09:47:13.677Z,100164.59
2023-02-24T09:49:57.086Z,100155.25
2023-02-24T09:52:39.941Z,100157.94
2023-02-24T09:55:26.565Z,100149.16
2023-02-24T09:58:19.219Z,100149.16
2023-02-24T10:01:31.165Z,100138.91
2023-02-24T10:04:20.075Z,100141.66
2023-02-24T10:06:51.940Z,100134.78
2023-02-24T10:09:33.734Z,100124.53
2023-02-24T10:12:17.318Z,100130.25
2023-02-24T10:15:32.389Z,100126.09
2023-02-24T10:18:27.546Z,100116.34
2023-02-24T10:21:06.759Z,100100.41
2023-02-24T10:24:02.551Z,100099.72
2023-02-24T10:27:00.916Z,100103.75
2023-02-24T10:29:51.161Z,100104.41
2023-02-24T10:32:34.103Z,100101.94
2023-02-24T10:35:02.337Z,100087.88
2023-02-24T10:37:30.449Z,100088.31
2023-02-24T10:40:10.278Z,100085.56
2023-02-24T10:42:46.105Z,100078.28
2023-02-24T10:45:23.979Z,100076.16
2023-02-24T10:47:57.662Z,100079.72
2023-02-24T10:50:34.900Z,100077.56
2023-02-24T10:53:34.349Z,100060.53
2023-02-24T10:56:26.871Z,100056.16
2023-02-24T10:59:21.148Z,100049.13
2023-02-24T11:02:00.144Z,100042.38
2023-02-24T11:05:04.444Z,100036.72
2023-02-24T11:07:45.498Z,100033.56
2023-02-24T11:10:32.777Z,100024.09
2023-02-24T11:13:20.027Z,100022.41
2023-02-24T11:16:12.518Z,99998.44
2023-02-24T11:18:45.976Z,100011.50
2023-02-24T11:21:17.242Z,100004.06
2023-02-24T11:23:51.969Z,99991.66
2023-02-24T11:26:41.829Z,99994.94
2023-02-24T11:29:24.093Z,99988.94
2023-02-24T11:32:12.667Z,99983.94
2023-02-24T11:35:09.497Z,99977.47
2023-02-24T11:37:43.763Z,99967.28
2023-02-24T11:40:24.051Z,99953.25
2023-02-24T11:42:57.698Z,99952.63
2023-02-24T11:45:33.705Z,99936.25
2023-02-24T11:48:15.071Z,99936.13
2023-02-24T11:50:47.670Z,99934.56
2023-02-24T11:53:45.716Z,99904.19
2023-02-24T11:56:28.073Z,99923.63
2023-02-24T11:58:55.146Z,99919.50
2023-02-24T12:01:48.450Z,99908.19
2023-02-24T12:04:49.273Z,99904.88
2023-02-24T12:07:28.540Z,99898.28
2023-02-24T12:10:19.488Z,99907.72
2023-02-24T12:12:53.073Z,99915.56
2023-02-24T12:15:31.100Z,99904.00
2023-02-24T12:18:16.398Z,99918.78
2023-02-24T12:20:48.828Z,99901.22
2023-02-24T12:23:21.128Z,99901.81
2023-02-24T12:25:56.740Z,99888.50
2023-02-24T12:28:39.041Z,99890.88
2023-02-24T12:31:40.680Z,99902.06
2023-02-24T12:34:36.822Z,99889.34
2023-02-24T12:37:37.734Z,99883.75
2023-02-24T12:40:24.169Z,99876.44
2023-02-24T12:43:21.167Z,99869.41
2023-02-24T12:46:12.679Z,99866.03
2023-02-24T12:48:51.580Z,99857.88
2023-02-24T12:51:46.549Z,99851.63
2023-02-24T12:54:24.197Z,99839.66
2023-02-24T12:57:19.488Z,99838.63
2023-02-24T12:59:46.933Z,99834.53
2023-02-24T13:02:43.684Z,99844.00
2023-02-24T13:05:20.196Z,99836.16
2023-02-24T13:07:49.925Z,99837.94
2023-02-24T13:11:06.545Z,99835.22
2023-02-24T13:13:52.806Z,99830.00
2023-02-24T13:16:32.075Z,99823.97
2023-02-24T13:19:20.613Z,99828.00
2023-02-24T13:22:13.121Z,99839.63
2023-02-24T13:24:43.010Z,99840.41
2023-02-24T13:27:35.622Z,99843.66
2023-02-24T13:30:23.715Z,99838.41
2023-02-24T13:33:24.231Z,99836.91
2023-02-24T13:36:10.644Z,99827.81
2023-02-24T13:38:40.877Z,99825.56
2023-02-24T13:41:22.949Z,99806.72
2023-02-24T13:43:59.299Z,99804.75
2023-02-24T13:46:47.045Z,99797.06
2023-02-24T13:49:27.831Z,99784.78
2023-02-24T13:52:03.276Z,99790.91
2023-02-24T13:54:56.004Z,99782.88
2023-02-24T13:57:50.797Z,99778.63
2023-02-24T14:00:29.905Z,99778.97
2023-02-24T14:02:57.923Z,99768.75
2023-02-24T14:05:32.580Z,99763.69
2023-02-24T14:08:00.460Z,99759.78
2023-02-24T14:10:30.748Z,99767.66
2023-02-24T14:13:22.587Z,99763.28
2023-02-24T14:15:49.711Z,99761.56
2023-02-24T14:18:26.654Z,99757.50
2023-02-24T14:20:55.437Z,99751.38
2023-02-24T14:23:28.822Z,99747.44
2023-02-24T14:26:09.829Z,99747.13
2023-02-24T14:28:40.048Z,99723.72
2023-02-24T14:31:13.198Z,99747.66
2023-02-24T14:33:42.871Z,99743.72
2023-02-24T14:36:23.445Z,99738.72
2023-02-24T14:39:30.891Z,99747.56
2023-02-24T14:42:14.200Z,99750.19
2023-02-24T14:44:47.924Z,99740.75
2023-02-24T14:47:17.119Z,99738.13
2023-02-24T14:50:02.649Z,99744.13
2023-02-24T14:52:44.817Z,99733.72
2023-02-24T14:55:19.506Z,99727.84
2023-02-24T14:57:50.921Z,99731.97
2023-02-24T15:00:24.394Z,99736.59
2023-02-24T15:03:31.050Z,99702.91
2023-02-24T15:06:04.817Z,99729.34
2023-02-24T15:08:42.287Z,99729.34
2023-02-24T15:11:21.351Z,99726.06
2023-02-24T15:13:58.696Z,99719.72
2023-02-24T15:16:30.023Z,99716.59
2023-02-24T15:19:01.134Z,99698.56
2023-02-24T15:21:31.872Z,99714.84
2023-02-24T15:24:18.794Z,99711.41
2023-02-24T15:26:57.596Z,99695.94
2023-02-24T15:29:27.915Z,99701.31
2023-02-24T15:32:00.260Z,99705.06
2023-02-24T15:34:35.687Z,99701.97
2023-02-24T15:37:13.474Z,99708.97
2023-02-24T15:39:44.178Z,99703.09
2023-02-24T15:42:17.150Z,99671.38
2023-02-24T15:45:00.072Z,99691.22
2023-02-24T15:47:41.682Z,99690.81
2023-02-24T15:50:10.447Z,99677.94
2023-02-24T15:52:37.837Z,99680.34
2023-02-24T15:55:05.248Z,99688.84
2023-02-24T15:57:33.684Z,99679.44
2023-02-24T16:00:07.589Z,99682.84
2023-02-24T16:02:34.636Z,99673.63
2023-02-24T16:05:01.552Z,99678.47
2023-02-24T16:07:36.156Z,99680.44
2023-02-24T16:10:04.642Z,99681.28
2023-02-24T16:12:36.343Z,99670.66
2023-02-24T16:15:06.907Z,99670.31
2023-02-24T16:17:33.648Z,99677.63
2023-02-24T16:20:02.376Z,99680.16
2023-02-24T16:22:29.873Z,99689.66
2023-02-24T16:24:56.754Z,99684.63
2023-02-24T16:27:26.176Z,99687.66
2023-02-24T16:29:53.452Z,99689.66
2023-02-24T16:32:23.982Z,99682.97
2023-02-24T16:34:51.025Z,99694.38
2023-02-24T16:37:27.385Z,99647.66
2023-02-24T16:39:54.902Z,99683.75
2023-02-24T16:42:22.206Z,99681.09
2023-02-24T16:44:49.602Z,99691.88
2023-02-24T16:47:20.602Z,99690.00
2023-02-24T16:49:47.636Z,99689.06
2023-02-24T16:52:19.178Z,99689.56
2023-02-24T16:54:48.519Z,99694.16
2023-02-24T16:57:16.409Z,99698.38
2023-02-24T16:59:43.326Z,99696.88
2023-02-24T17:02:23.532Z,99691.69
2023-02-24T17:04:50.541Z,99697.66
2023-02-24T17:07:19.202Z,99702.25
2023-02-24T17:09:46.050Z,99704.81
2023-02-24T17:12:15.699Z,99702.81
2023-02-24T17:14:42.660Z,99702.03
2023-02-24T17:17:09.702Z,99697.94
2023-02-24T17:19:36.730Z,99704.72
2023-02-24T17:22:04.751Z,99692.38
2023-02-24T17:24:31.820Z,99701.09
2023-02-24T17:27:00.123Z,99706.78
2023-02-24T17:29:27.605Z,99700.69
2023-02-24T17:31:54.753Z,99704.00
2023-02-24T17:34:24.135Z,99710.84
2023-02-24T17:36:51.190Z,99708.50
2023-02-24T17:39:18.090Z,99675.19
2023-02-24T17:41:44.976Z,99702.50
2023-02-24T17:44:11.884Z,99708.44
2023-02-24T17:46:39.090Z,99709.25
2023-02-24T17:49:06.207Z,99708.44
2023-02-24T17:51:33.374Z,99713.13
2023-02-24T17:54:00.637Z,99705.25
2023-02-24T17:56:27.867Z,99701.91
2023-02-24T17:58:58.960Z,99703.09
2023-02-24T18:01:26.684Z,99700.69
2023-02-24T18:03:55.953Z,99703.44
2023-02-24T18:06:23.876Z,99702.94
2023-02-24T18:08:51.429Z,99708.56
2023-02-24T18:11:20.980Z,99703.06
2023-02-24T18:13:51.208Z,99676.53
2023-02-24T18:16:18.609Z,99705.72
2023-02-24T18:18:45.352Z,99712.84
2023-02-24T18:21:12.150Z,99698.88
2023-02-24T18:23:40.720Z,99708.88
2023-02-24T18:26:09.062Z,99702.34
2023-02-24T18:28:35.960Z,99704.69
2023-02-24T18:31:09.338Z,99710.50
2023-02-24T18:33:36.549Z,99707.03
2023-02-24T18:36:03.470Z,99719.16
2023-02-24T18:38:30.221Z,99709.59
2023-02-24T18:41:01.875Z,99722.00
2023-02-24T18:43:30.857Z,99713.25
2023-02-24T18:45:59.342Z,99708.59
2023-02-24T18:48:26.862Z,99703.38
2023-02-24T18:50:54.401Z,99711.00
2023-02-24T18:53:24.055Z,99693.78
2023-02-24T18:55:51.102Z,99718.03
2023-02-24T18:58:18.131Z,99713.03
2023-02-24T19:00:46.409Z,99709.78
2023-02-24T19:03:13.399Z,99711.00
2023-02-24T19:05:40.331Z,99709.09
2023-02-24T19:08:07.374Z,99716.41
2023-02-24T19:10:35.713Z,99721.00
2023-02-24T19:13:02.808Z,99716.69
2023-02-24T19:15:29.794Z,99712.78
2023-02-24T19:17:56.966Z,99696.41
2023-02-24T19:20:23.922Z,99714.06
2023-02-24T19:22:51.760Z,99713.34
2023-02-24T19:25:18.935Z,99706.84
2023-02-24T19:27:47.954Z,99713.66
2023-02-24T19:30:16.717Z,99714.91
2023-02-24T19:32:43.805Z,99711.94
2023-02-24T19:35:10.552Z,99714.78
2023-02-24T19:37:41.404Z,99712.72
2023-02-24T19:40:10.059Z,99710.28
2023-02-24T19:42:37.046Z,99716.13
2023-02-24T19:45:04.160Z,99718.16
2023-02-24T19:47:31.063Z,99728.38
2023-02-24T19:49:58.061Z,99724.50
2023-02-24T19:52:24.948Z,99716.22
2023-02-24T19:54:52.075Z,99723.25
2023-02-24T19:57:19.059Z,99720.41
2023-02-24T19:59:46.064Z,99728.03
2023-02-24T20:02:12.825Z,99730.38
2023-02-24T20:04:39.756Z,99705.72
2023-02-24T20:07:06.881Z,99726.72
2023-02-24T20:09:33.701Z,99714.72
2023-02-24T20:12:02.112Z,99714.03
2023-02-24T20:14:29.859Z,99722.97
2023-02-24T20:16:56.798Z,99715.03
2023-02-24T20:19:23.994Z,99717.97
2023-02-24T20:21:51.607Z,99729.59
2023-02-24T20:24:19.432Z,99727.66
2023-02-24T20:26:49.629Z,99733.31
2023-02-24T20:29:18.320Z,99729.47
2023-02-24T20:31:46.722Z,99737.06
2023-02-24T20:34:16.388Z,99729.03
2023-02-24T20:36:44.241Z,99736.53
2023-02-24T20:39:12.600Z,99732.78
2023-02-24T20:41:40.765Z,99728.00
2023-02-24T20:44:08.392Z,99726.38
2023-02-24T20:46:35.423Z,99692.41
2023-02-24T20:49:05.703Z,99730.75
2023-02-24T20:51:34.791Z,99733.31
2023-02-24T20:54:02.185Z,99738.03
2023-02-24T20:56:33.371Z,99741.41
2023-02-24T20:59:06.345Z,99740.59
2023-02-24T21:01:34.331Z,99701.00
2023-02-24T21:04:02.853Z,99747.75
2023-02-24T21:06:30.715Z,99751.13
2023-02-24T21:08:58.330Z,99753.34
2023-02-24T21:11:26.422Z,99755.59
2023-02-24T21:13:53.466Z,99759.38
2023-02-24T21:16:21.900Z,99770.50
2023-02-24T21:18:50.355Z,99758.25
2023-02-24T21:21:19.363Z,99789.31
2023-02-24T21:23:47.303Z,99785.09
2023-02-24T21:26:17.223Z,99781.75
2023-02-24T21:28:44.597Z,99762.53
2023-02-24T21:31:15.123Z,99798.59
2023-02-24T21:33:42.121Z,99795.19
2023-02-24T21:36:13.649Z,99812.75
2023-02-24T21:38:41.493Z,99814.56
2023-02-24T21:41:13.786Z,99817.63
2023-02-24T21:43:41.430Z,99823.72
2023-02-24T21:46:12.073Z,99821.50
2023-02-24T21:48:40.880Z,99822.41
2023-02-24T21:51:10.129Z,99821.38
2023-02-24T21:53:39.608Z,99828.38
2023-02-24T21:56:11.264Z,99835.63
2023-02-24T21:58:39.776Z,99834.31
2023-02-24T22:01:15.551Z,99843.81
2023-02-24T22:03:42.690Z,99835.94
2023-02-24T22:06:11.727Z,99844.13
2023-02-24T22:08:43.534Z,99854.38
2023-02-24T22:11:12.855Z,99849.59
2023-02-24T22:13:40.774Z,99856.84
2023-02-24T22:16:09.871Z,99846.72
2023-02-24T22:18:36.976Z,99863.50
2023-02-24T22:21:12.453Z,99859.94
2023-02-24T22:23:40.164Z,99859.63
2023-02-24T22:26:09.493Z,99867.34
2023-02-24T22:28:41.417Z,99868.69
2023-02-24T22:31:11.171Z,99854.00
2023-02-24T22:33:42.951Z,99864.91
2023-02-24T22:36:15.175Z,99866.03
2023-02-24T22:38:43.511Z,99869.00
2023-02-24T22:41:17.891Z,99870.09
2023-02-24T22:43:45.593Z,99871.81
2023-02-24T22:46:15.363Z,99875.56
2023-02-24T22:48:42.734Z,99878.50
2023-02-24T22:51:11.879Z,99880.38
2023-02-24T22:53:41.910Z,99889.63
2023-02-24T22:56:11.643Z,99868.16
2023-02-24T22:58:44.734Z,99884.94
2023-02-24T23:01:15.129Z,99883.31
2023-02-24T23:03:43.828Z,99881.94
2023-02-24T23:06:13.610Z,99878.94
2023-02-24T23:08:42.726Z,99887.47
2023-02-24T23:11:23.900Z,99896.91
2023-02-24T23:13:52.288Z,99904.97
2023-02-24T23:16:23.888Z,99895.00
2023-02-24T23:18:51.167Z,99892.13
2023-02-24T23:21:26.805Z,99898.47
2023-02-24T23:23:57.133Z,99903.47
2023-02-24T23:26:32.540Z,99906.91
2023-02-24T23:28:59.785Z,99910.72
2023-02-24T23:31:27.962Z,99908.03
2023-02-24T23:33:55.496Z,99915.66
2023-02-24T23:36:24.248Z,99921.59
2023-02-24T23:38:52.972Z,99928.72
2023-02-24T23:41:20.692Z,99924.84
2023-02-24T23:43:47.626Z,99933.94
2023-02-24T23:46:14.549Z,99931.19
2023-02-24T23:48:42.193Z,99927.69
2023-02-24T23:51:13.996Z,99921.16
2023-02-24T23:53:45.137Z,99904.41
2023-02-24T23:56:20.725Z,99934.06
2023-02-24T23:58:56.924Z,99946.56
